Terminal Aerodrome Forecast
Issued by NWS Melbourne, FL

Home | Current Version | Previous Version | Text Only | Print | Product List | Glossary On
Versions: 1 2 3 4 5 6 7 8 9 10 11 12 13 14
000
FTUS42 KMLB 310530
TAFMLB
TAF
KMLB 310530Z 3106/0106 15003KT P6SM FEW035 SCT250
     FM311400 14007KT P6SM SCT035
     FM311700 12010KT P6SM VCSH SCT040
     FM312200 14006KT P6SM SCT050 SCT100=

USA.gov is the U.S. government's official web portal to all federal, state and local government web resources and services.